sensor_id;sensor_type;location;lat;lon;timestamp;P1;durP1;ratioP1;P2;durP2;ratioP2
34876;SDS011;21086;44.780;17.194;2023-03-04T00:02:20;14.02;;;10.05;;
34876;SDS011;21086;44.780;17.194;2023-03-04T00:04:47;14.07;;;10.73;;
34876;SDS011;21086;44.780;17.194;2023-03-04T00:07:14;18.15;;;11.75;;
34876;SDS011;21086;44.780;17.194;2023-03-04T00:09:43;15.40;;;10.90;;
34876;SDS011;21086;44.780;17.194;2023-03-04T00:12:11;17.33;;;12.73;;
34876;SDS011;21086;44.780;17.194;2023-03-04T00:14:39;17.52;;;11.27;;
34876;SDS011;21086;44.780;17.194;2023-03-04T00:17:07;15.93;;;11.38;;
34876;SDS011;21086;44.780;17.194;2023-03-04T00:19:34;18.27;;;12.70;;
34876;SDS011;21086;44.780;17.194;2023-03-04T00:22:01;15.50;;;11.75;;
34876;SDS011;21086;44.780;17.194;2023-03-04T00:24:30;18.10;;;12.90;;
34876;SDS011;21086;44.780;17.194;2023-03-04T00:26:58;14.50;;;10.25;;
34876;SDS011;21086;44.780;17.194;2023-03-04T00:29:25;18.73;;;11.35;;
34876;SDS011;21086;44.780;17.194;2023-03-04T00:31:52;21.75;;;14.63;;
34876;SDS011;21086;44.780;17.194;2023-03-04T00:34:19;19.40;;;13.80;;
34876;SDS011;21086;44.780;17.194;2023-03-04T00:36:46;21.65;;;16.45;;
34876;SDS011;21086;44.780;17.194;2023-03-04T00:39:16;19.73;;;14.95;;
34876;SDS011;21086;44.780;17.194;2023-03-04T00:41:43;17.77;;;12.68;;
34876;SDS011;21086;44.780;17.194;2023-03-04T00:44:10;18.10;;;12.48;;
34876;SDS011;21086;44.780;17.194;2023-03-04T00:46:37;15.73;;;11.85;;
34876;SDS011;21086;44.780;17.194;2023-03-04T00:49:04;16.13;;;11.45;;
34876;SDS011;21086;44.780;17.194;2023-03-04T00:51:31;21.60;;;14.73;;
34876;SDS011;21086;44.780;17.194;2023-03-04T00:53:58;25.38;;;18.02;;
34876;SDS011;21086;44.780;17.194;2023-03-04T00:56:26;26.70;;;17.35;;
34876;SDS011;21086;44.780;17.194;2023-03-04T00:58:54;32.63;;;22.50;;
34876;SDS011;21086;44.780;17.194;2023-03-04T01:01:24;24.38;;;17.90;;
34876;SDS011;21086;44.780;17.194;2023-03-04T01:03:51;27.45;;;17.23;;
34876;SDS011;21086;44.780;17.194;2023-03-04T01:06:18;23.38;;;18.95;;
34876;SDS011;21086;44.780;17.194;2023-03-04T01:08:45;25.23;;;19.38;;
34876;SDS011;21086;44.780;17.194;2023-03-04T01:11:11;25.88;;;19.58;;
34876;SDS011;21086;44.780;17.194;2023-03-04T01:13:39;22.35;;;17.17;;
34876;SDS011;21086;44.780;17.194;2023-03-04T01:16:06;24.42;;;17.27;;
34876;SDS011;21086;44.780;17.194;2023-03-04T01:18:33;26.90;;;19.77;;
34876;SDS011;21086;44.780;17.194;2023-03-04T01:21:00;31.30;;;22.00;;
34876;SDS011;21086;44.780;17.194;2023-03-04T01:23:27;29.17;;;19.05;;
34876;SDS011;21086;44.780;17.194;2023-03-04T01:25:58;26.10;;;19.88;;
34876;SDS011;21086;44.780;17.194;2023-03-04T01:28:25;27.48;;;18.85;;
34876;SDS011;21086;44.780;17.194;2023-03-04T01:30:52;23.55;;;17.42;;
34876;SDS011;21086;44.780;17.194;2023-03-04T01:33:19;22.63;;;17.55;;
34876;SDS011;21086;44.780;17.194;2023-03-04T01:35:46;25.35;;;18.10;;
34876;SDS011;21086;44.780;17.194;2023-03-04T01:38:13;22.60;;;16.50;;
34876;SDS011;21086;44.780;17.194;2023-03-04T01:40:40;23.38;;;16.55;;
34876;SDS011;21086;44.780;17.194;2023-03-04T01:43:08;19.77;;;14.57;;
34876;SDS011;21086;44.780;17.194;2023-03-04T01:45:43;19.77;;;15.38;;
34876;SDS011;21086;44.780;17.194;2023-03-04T01:48:09;21.90;;;15.65;;
34876;SDS011;21086;44.780;17.194;2023-03-04T01:50:39;15.45;;;11.82;;
34876;SDS011;21086;44.780;17.194;2023-03-04T01:53:09;17.67;;;12.52;;
34876;SDS011;21086;44.780;17.194;2023-03-04T01:56:42;19.58;;;14.00;;
34876;SDS011;21086;44.780;17.194;2023-03-04T01:59:08;14.88;;;11.57;;
34876;SDS011;21086;44.780;17.194;2023-03-04T02:01:48;13.38;;;10.10;;
34876;SDS011;21086;44.780;17.194;2023-03-04T02:04:21;12.13;;;9.15;;
34876;SDS011;21086;44.780;17.194;2023-03-04T02:06:53;12.38;;;9.20;;
34876;SDS011;21086;44.780;17.194;2023-03-04T02:09:21;14.75;;;11.25;;
34876;SDS011;21086;44.780;17.194;2023-03-04T02:11:49;14.88;;;10.63;;
34876;SDS011;21086;44.780;17.194;2023-03-04T02:14:17;15.18;;;10.45;;
34876;SDS011;21086;44.780;17.194;2023-03-04T02:16:45;15.48;;;11.55;;
34876;SDS011;21086;44.780;17.194;2023-03-04T02:19:30;13.85;;;10.50;;
34876;SDS011;21086;44.780;17.194;2023-03-04T02:22:09;11.85;;;9.35;;
34876;SDS011;21086;44.780;17.194;2023-03-04T02:27:22;17.98;;;13.15;;
34876;SDS011;21086;44.780;17.194;2023-03-04T02:29:49;16.60;;;12.70;;
34876;SDS011;21086;44.780;17.194;2023-03-04T02:32:16;15.50;;;10.50;;
34876;SDS011;21086;44.780;17.194;2023-03-04T02:34:47;16.92;;;11.13;;
34876;SDS011;21086;44.780;17.194;2023-03-04T02:37:16;14.40;;;11.88;;
34876;SDS011;21086;44.780;17.194;2023-03-04T02:39:45;14.90;;;11.70;;
34876;SDS011;21086;44.780;17.194;2023-03-04T02:42:14;15.75;;;11.45;;
34876;SDS011;21086;44.780;17.194;2023-03-04T02:44:42;15.80;;;12.10;;
34876;SDS011;21086;44.780;17.194;2023-03-04T02:47:14;17.25;;;11.50;;
34876;SDS011;21086;44.780;17.194;2023-03-04T02:49:45;16.83;;;12.35;;
34876;SDS011;21086;44.780;17.194;2023-03-04T02:52:15;17.38;;;13.00;;
34876;SDS011;21086;44.780;17.194;2023-03-04T02:54:44;13.43;;;10.77;;
34876;SDS011;21086;44.780;17.194;2023-03-04T02:57:12;16.65;;;11.60;;
34876;SDS011;21086;44.780;17.194;2023-03-04T02:59:40;17.55;;;12.23;;
34876;SDS011;21086;44.780;17.194;2023-03-04T03:02:08;16.75;;;12.30;;
34876;SDS011;21086;44.780;17.194;2023-03-04T03:04:37;14.82;;;10.85;;
34876;SDS011;21086;44.780;17.194;2023-03-04T03:07:05;14.52;;;10.55;;
34876;SDS011;21086;44.780;17.194;2023-03-04T03:09:33;16.27;;;11.40;;
34876;SDS011;21086;44.780;17.194;2023-03-04T03:11:59;16.23;;;11.43;;
34876;SDS011;21086;44.780;17.194;2023-03-04T03:14:27;15.32;;;11.75;;
34876;SDS011;21086;44.780;17.194;2023-03-04T03:16:54;14.10;;;10.18;;
34876;SDS011;21086;44.780;17.194;2023-03-04T03:19:21;14.18;;;9.90;;
34876;SDS011;21086;44.780;17.194;2023-03-04T03:21:48;11.88;;;9.13;;
34876;SDS011;21086;44.780;17.194;2023-03-04T03:24:15;13.23;;;9.90;;
34876;SDS011;21086;44.780;17.194;2023-03-04T03:26:42;12.40;;;9.35;;
34876;SDS011;21086;44.780;17.194;2023-03-04T03:29:09;11.90;;;8.88;;
34876;SDS011;21086;44.780;17.194;2023-03-04T03:31:36;11.38;;;8.90;;
34876;SDS011;21086;44.780;17.194;2023-03-04T03:34:03;12.45;;;9.63;;
34876;SDS011;21086;44.780;17.194;2023-03-04T03:36:30;12.02;;;8.70;;
34876;SDS011;21086;44.780;17.194;2023-03-04T03:38:57;9.93;;;8.43;;
34876;SDS011;21086;44.780;17.194;2023-03-04T03:41:24;9.15;;;7.97;;
34876;SDS011;21086;44.780;17.194;2023-03-04T03:43:51;10.45;;;8.38;;
34876;SDS011;21086;44.780;17.194;2023-03-04T03:46:18;16.33;;;9.10;;
34876;SDS011;21086;44.780;17.194;2023-03-04T03:48:45;11.13;;;8.98;;
34876;SDS011;21086;44.780;17.194;2023-03-04T03:51:12;12.55;;;8.55;;
34876;SDS011;21086;44.780;17.194;2023-03-04T03:53:39;10.77;;;8.25;;
34876;SDS011;21086;44.780;17.194;2023-03-04T03:56:07;9.70;;;7.38;;
34876;SDS011;21086;44.780;17.194;2023-03-04T03:58:33;12.02;;;8.98;;
34876;SDS011;21086;44.780;17.194;2023-03-04T04:01:00;11.95;;;8.85;;
34876;SDS011;21086;44.780;17.194;2023-03-04T04:03:27;10.32;;;7.72;;
34876;SDS011;21086;44.780;17.194;2023-03-04T04:05:54;9.80;;;8.50;;
34876;SDS011;21086;44.780;17.194;2023-03-04T04:08:21;10.63;;;8.50;;
34876;SDS011;21086;44.780;17.194;2023-03-04T04:10:48;10.65;;;7.50;;
34876;SDS011;21086;44.780;17.194;2023-03-04T04:13:16;9.63;;;7.75;;
34876;SDS011;21086;44.780;17.194;2023-03-04T04:15:42;9.85;;;7.78;;
34876;SDS011;21086;44.780;17.194;2023-03-04T04:18:09;9.48;;;7.97;;
34876;SDS011;21086;44.780;17.194;2023-03-04T04:20:36;9.88;;;8.32;;
34876;SDS011;21086;44.780;17.194;2023-03-04T04:23:03;10.38;;;8.27;;
34876;SDS011;21086;44.780;17.194;2023-03-04T04:25:30;8.35;;;6.90;;
34876;SDS011;21086;44.780;17.194;2023-03-04T04:27:57;11.27;;;8.85;;
34876;SDS011;21086;44.780;17.194;2023-03-04T04:30:25;11.68;;;9.50;;
34876;SDS011;21086;44.780;17.194;2023-03-04T04:32:52;15.10;;;9.77;;
34876;SDS011;21086;44.780;17.194;2023-03-04T04:35:18;10.52;;;7.95;;
34876;SDS011;21086;44.780;17.194;2023-03-04T04:37:46;11.77;;;8.05;;
34876;SDS011;21086;44.780;17.194;2023-03-04T04:40:14;10.95;;;8.27;;
34876;SDS011;21086;44.780;17.194;2023-03-04T04:42:41;12.98;;;9.20;;
34876;SDS011;21086;44.780;17.194;2023-03-04T04:45:08;13.23;;;9.05;;
34876;SDS011;21086;44.780;17.194;2023-03-04T04:47:36;12.32;;;8.70;;
34876;SDS011;21086;44.780;17.194;2023-03-04T04:50:03;11.25;;;8.70;;
34876;SDS011;21086;44.780;17.194;2023-03-04T04:52:30;10.95;;;8.40;;
34876;SDS011;21086;44.780;17.194;2023-03-04T04:54:57;9.95;;;7.95;;
34876;SDS011;21086;44.780;17.194;2023-03-04T04:57:24;11.73;;;8.70;;
34876;SDS011;21086;44.780;17.194;2023-03-04T04:59:51;11.13;;;8.20;;
34876;SDS011;21086;44.780;17.194;2023-03-04T05:02:18;8.48;;;6.97;;
34876;SDS011;21086;44.780;17.194;2023-03-04T05:04:45;10.15;;;7.90;;
34876;SDS011;21086;44.780;17.194;2023-03-04T05:07:12;11.52;;;8.45;;
34876;SDS011;21086;44.780;17.194;2023-03-04T05:09:39;11.75;;;9.02;;
34876;SDS011;21086;44.780;17.194;2023-03-04T05:12:09;12.02;;;8.70;;
34876;SDS011;21086;44.780;17.194;2023-03-04T05:14:35;11.45;;;8.88;;
34876;SDS011;21086;44.780;17.194;2023-03-04T05:17:02;12.70;;;8.07;;
34876;SDS011;21086;44.780;17.194;2023-03-04T05:19:29;9.98;;;8.40;;
34876;SDS011;21086;44.780;17.194;2023-03-04T05:21:56;11.70;;;8.50;;
34876;SDS011;21086;44.780;17.194;2023-03-04T05:24:24;9.00;;;6.72;;
34876;SDS011;21086;44.780;17.194;2023-03-04T05:26:50;8.23;;;6.55;;
34876;SDS011;21086;44.780;17.194;2023-03-04T05:29:17;9.70;;;7.15;;
34876;SDS011;21086;44.780;17.194;2023-03-04T05:31:44;11.40;;;7.78;;
34876;SDS011;21086;44.780;17.194;2023-03-04T05:34:11;6.78;;;6.05;;
34876;SDS011;21086;44.780;17.194;2023-03-04T05:36:38;8.95;;;7.32;;
34876;SDS011;21086;44.780;17.194;2023-03-04T05:39:05;7.47;;;6.50;;
34876;SDS011;21086;44.780;17.194;2023-03-04T05:41:32;9.63;;;6.97;;
34876;SDS011;21086;44.780;17.194;2023-03-04T05:43:59;9.65;;;7.82;;
34876;SDS011;21086;44.780;17.194;2023-03-04T05:46:26;13.77;;;10.50;;
34876;SDS011;21086;44.780;17.194;2023-03-04T05:48:54;15.60;;;12.18;;
34876;SDS011;21086;44.780;17.194;2023-03-04T05:51:21;16.60;;;12.80;;
34876;SDS011;21086;44.780;17.194;2023-03-04T05:53:49;17.08;;;13.25;;
34876;SDS011;21086;44.780;17.194;2023-03-04T05:56:17;14.88;;;11.23;;
34876;SDS011;21086;44.780;17.194;2023-03-04T05:58:45;19.08;;;13.13;;
34876;SDS011;21086;44.780;17.194;2023-03-04T06:01:13;17.60;;;13.05;;
34876;SDS011;21086;44.780;17.194;2023-03-04T06:03:40;16.88;;;12.55;;
34876;SDS011;21086;44.780;17.194;2023-03-04T06:06:08;15.52;;;11.55;;
34876;SDS011;21086;44.780;17.194;2023-03-04T06:08:36;17.00;;;11.80;;
34876;SDS011;21086;44.780;17.194;2023-03-04T06:11:02;17.30;;;12.20;;
34876;SDS011;21086;44.780;17.194;2023-03-04T06:13:31;20.45;;;15.50;;
34876;SDS011;21086;44.780;17.194;2023-03-04T06:15:59;17.10;;;12.57;;
34876;SDS011;21086;44.780;17.194;2023-03-04T06:18:27;19.27;;;16.40;;
34876;SDS011;21086;44.780;17.194;2023-03-04T06:20:55;18.30;;;13.25;;
34876;SDS011;21086;44.780;17.194;2023-03-04T06:23:26;11.00;;;9.88;;
34876;SDS011;21086;44.780;17.194;2023-03-04T06:25:55;17.88;;;10.15;;
34876;SDS011;21086;44.780;17.194;2023-03-04T06:28:24;11.77;;;8.57;;
34876;SDS011;21086;44.780;17.194;2023-03-04T06:30:52;9.93;;;8.68;;
34876;SDS011;21086;44.780;17.194;2023-03-04T06:33:19;9.52;;;8.27;;
34876;SDS011;21086;44.780;17.194;2023-03-04T06:35:47;10.98;;;8.88;;
34876;SDS011;21086;44.780;17.194;2023-03-04T06:38:14;13.57;;;11.32;;
34876;SDS011;21086;44.780;17.194;2023-03-04T06:40:41;11.20;;;9.02;;
34876;SDS011;21086;44.780;17.194;2023-03-04T06:43:08;12.88;;;10.43;;
34876;SDS011;21086;44.780;17.194;2023-03-04T06:45:37;13.82;;;9.38;;
34876;SDS011;21086;44.780;17.194;2023-03-04T06:48:04;13.32;;;8.68;;
34876;SDS011;21086;44.780;17.194;2023-03-04T06:50:31;11.95;;;8.95;;
34876;SDS011;21086;44.780;17.194;2023-03-04T06:52:59;11.57;;;8.70;;
34876;SDS011;21086;44.780;17.194;2023-03-04T06:55:26;13.82;;;10.20;;
34876;SDS011;21086;44.780;17.194;2023-03-04T06:57:52;12.88;;;10.77;;
34876;SDS011;21086;44.780;17.194;2023-03-04T07:00:20;12.20;;;9.30;;
34876;SDS011;21086;44.780;17.194;2023-03-04T07:02:49;11.25;;;8.85;;
34876;SDS011;21086;44.780;17.194;2023-03-04T07:05:20;11.80;;;8.45;;
34876;SDS011;21086;44.780;17.194;2023-03-04T07:07:47;11.40;;;8.27;;
34876;SDS011;21086;44.780;17.194;2023-03-04T07:10:16;11.85;;;8.40;;
34876;SDS011;21086;44.780;17.194;2023-03-04T07:12:43;11.50;;;8.40;;
34876;SDS011;21086;44.780;17.194;2023-03-04T07:15:10;11.95;;;8.73;;
34876;SDS011;21086;44.780;17.194;2023-03-04T07:17:38;12.85;;;9.50;;
34876;SDS011;21086;44.780;17.194;2023-03-04T07:20:05;11.90;;;9.98;;
34876;SDS011;21086;44.780;17.194;2023-03-04T07:22:32;11.18;;;8.60;;
34876;SDS011;21086;44.780;17.194;2023-03-04T07:24:59;12.82;;;8.77;;
34876;SDS011;21086;44.780;17.194;2023-03-04T07:27:26;11.98;;;9.75;;
34876;SDS011;21086;44.780;17.194;2023-03-04T07:29:53;14.25;;;10.10;;
34876;SDS011;21086;44.780;17.194;2023-03-04T07:32:20;15.30;;;12.27;;
34876;SDS011;21086;44.780;17.194;2023-03-04T07:34:47;14.65;;;11.35;;
34876;SDS011;21086;44.780;17.194;2023-03-04T07:37:14;14.68;;;9.18;;
34876;SDS011;21086;44.780;17.194;2023-03-04T07:39:42;13.43;;;10.88;;
34876;SDS011;21086;44.780;17.194;2023-03-04T07:42:09;16.88;;;12.05;;
34876;SDS011;21086;44.780;17.194;2023-03-04T07:44:36;14.63;;;11.80;;
34876;SDS011;21086;44.780;17.194;2023-03-04T07:47:03;15.63;;;12.27;;
34876;SDS011;21086;44.780;17.194;2023-03-04T07:49:30;15.68;;;10.55;;
34876;SDS011;21086;44.780;17.194;2023-03-04T07:51:57;11.60;;;10.00;;
34876;SDS011;21086;44.780;17.194;2023-03-04T07:54:27;13.85;;;11.40;;
34876;SDS011;21086;44.780;17.194;2023-03-04T07:56:54;21.00;;;15.43;;
34876;SDS011;21086;44.780;17.194;2023-03-04T07:59:22;17.58;;;13.73;;
34876;SDS011;21086;44.780;17.194;2023-03-04T08:01:48;19.95;;;14.73;;
34876;SDS011;21086;44.780;17.194;2023-03-04T08:04:16;12.57;;;10.18;;
34876;SDS011;21086;44.780;17.194;2023-03-04T08:06:43;14.45;;;10.73;;
34876;SDS011;21086;44.780;17.194;2023-03-04T08:09:10;13.95;;;10.52;;
34876;SDS011;21086;44.780;17.194;2023-03-04T08:11:39;13.20;;;9.95;;
34876;SDS011;21086;44.780;17.194;2023-03-04T08:14:06;12.48;;;10.18;;
34876;SDS011;21086;44.780;17.194;2023-03-04T08:16:34;11.20;;;8.90;;
34876;SDS011;21086;44.780;17.194;2023-03-04T08:19:02;14.38;;;9.00;;
34876;SDS011;21086;44.780;17.194;2023-03-04T08:21:30;14.70;;;9.43;;
34876;SDS011;21086;44.780;17.194;2023-03-04T08:23:58;11.75;;;8.32;;
34876;SDS011;21086;44.780;17.194;2023-03-04T08:26:29;14.20;;;9.43;;
34876;SDS011;21086;44.780;17.194;2023-03-04T08:28:59;13.82;;;9.90;;
34876;SDS011;21086;44.780;17.194;2023-03-04T08:31:27;11.70;;;8.05;;
34876;SDS011;21086;44.780;17.194;2023-03-04T08:33:54;14.23;;;9.30;;
34876;SDS011;21086;44.780;17.194;2023-03-04T08:36:21;10.43;;;7.70;;
34876;SDS011;21086;44.780;17.194;2023-03-04T08:38:49;17.13;;;9.10;;
34876;SDS011;21086;44.780;17.194;2023-03-04T08:41:17;14.00;;;8.02;;
34876;SDS011;21086;44.780;17.194;2023-03-04T08:43:45;12.48;;;8.10;;
34876;SDS011;21086;44.780;17.194;2023-03-04T08:46:12;12.25;;;7.95;;
34876;SDS011;21086;44.780;17.194;2023-03-04T08:48:39;14.65;;;10.85;;
34876;SDS011;21086;44.780;17.194;2023-03-04T08:51:07;15.95;;;11.88;;
34876;SDS011;21086;44.780;17.194;2023-03-04T08:53:36;16.98;;;11.95;;
34876;SDS011;21086;44.780;17.194;2023-03-04T08:56:04;15.43;;;10.68;;
34876;SDS011;21086;44.780;17.194;2023-03-04T08:58:31;17.50;;;10.02;;
34876;SDS011;21086;44.780;17.194;2023-03-04T09:00:58;11.50;;;7.70;;
34876;SDS011;21086;44.780;17.194;2023-03-04T09:03:29;17.85;;;7.35;;
34876;SDS011;21086;44.780;17.194;2023-03-04T09:05:56;12.90;;;7.20;;
34876;SDS011;21086;44.780;17.194;2023-03-04T09:08:23;12.82;;;7.80;;
34876;SDS011;21086;44.780;17.194;2023-03-04T09:10:51;12.63;;;8.02;;
34876;SDS011;21086;44.780;17.194;2023-03-04T09:13:22;13.38;;;9.38;;
34876;SDS011;21086;44.780;17.194;2023-03-04T09:15:51;16.15;;;8.35;;
34876;SDS011;21086;44.780;17.194;2023-03-04T09:18:20;13.32;;;9.30;;
34876;SDS011;21086;44.780;17.194;2023-03-04T09:20:49;13.75;;;9.32;;
34876;SDS011;21086;44.780;17.194;2023-03-04T09:23:16;12.77;;;8.55;;
34876;SDS011;21086;44.780;17.194;2023-03-04T09:25:44;15.25;;;9.85;;
34876;SDS011;21086;44.780;17.194;2023-03-04T09:28:13;13.57;;;9.32;;
34876;SDS011;21086;44.780;17.194;2023-03-04T09:30:41;15.73;;;9.93;;
34876;SDS011;21086;44.780;17.194;2023-03-04T09:33:09;16.00;;;9.63;;
34876;SDS011;21086;44.780;17.194;2023-03-04T09:35:36;14.50;;;9.43;;
34876;SDS011;21086;44.780;17.194;2023-03-04T09:38:03;14.20;;;9.90;;
34876;SDS011;21086;44.780;17.194;2023-03-04T09:40:33;11.85;;;9.32;;
34876;SDS011;21086;44.780;17.194;2023-03-04T09:43:05;21.30;;;14.27;;
34876;SDS011;21086;44.780;17.194;2023-03-04T09:45:42;15.77;;;10.60;;
34876;SDS011;21086;44.780;17.194;2023-03-04T09:48:15;18.20;;;11.10;;
34876;SDS011;21086;44.780;17.194;2023-03-04T09:56:29;16.05;;;10.75;;
34876;SDS011;21086;44.780;17.194;2023-03-04T09:59:02;16.55;;;11.57;;
34876;SDS011;21086;44.780;17.194;2023-03-04T10:01:49;14.10;;;10.80;;
34876;SDS011;21086;44.780;17.194;2023-03-04T10:04:39;16.75;;;11.38;;
34876;SDS011;21086;44.780;17.194;2023-03-04T10:07:20;16.70;;;11.27;;
34876;SDS011;21086;44.780;17.194;2023-03-04T10:09:59;21.08;;;11.80;;
34876;SDS011;21086;44.780;17.194;2023-03-04T10:12:31;17.85;;;11.52;;
34876;SDS011;21086;44.780;17.194;2023-03-04T10:17:50;18.00;;;12.40;;
34876;SDS011;21086;44.780;17.194;2023-03-04T10:20:28;18.30;;;14.05;;
34876;SDS011;21086;44.780;17.194;2023-03-04T10:23:01;17.40;;;12.43;;
34876;SDS011;21086;44.780;17.194;2023-03-04T10:25:37;16.67;;;10.85;;
34876;SDS011;21086;44.780;17.194;2023-03-04T10:28:14;16.67;;;11.43;;
34876;SDS011;21086;44.780;17.194;2023-03-04T10:41:34;19.02;;;10.15;;
34876;SDS011;21086;44.780;17.194;2023-03-04T10:46:30;14.60;;;10.30;;
34876;SDS011;21086;44.780;17.194;2023-03-04T10:48:58;17.80;;;10.73;;
34876;SDS011;21086;44.780;17.194;2023-03-04T10:51:26;15.98;;;9.50;;
34876;SDS011;21086;44.780;17.194;2023-03-04T10:53:59;13.98;;;10.02;;
34876;SDS011;21086;44.780;17.194;2023-03-04T10:56:37;16.90;;;10.98;;
34876;SDS011;21086;44.780;17.194;2023-03-04T11:07:36;18.35;;;12.65;;
34876;SDS011;21086;44.780;17.194;2023-03-04T11:10:22;17.33;;;13.00;;
34876;SDS011;21086;44.780;17.194;2023-03-04T11:12:54;41.00;;;23.65;;
34876;SDS011;21086;44.780;17.194;2023-03-04T11:15:27;18.65;;;13.88;;
34876;SDS011;21086;44.780;17.194;2023-03-04T11:18:14;18.17;;;10.10;;
34876;SDS011;21086;44.780;17.194;2023-03-04T11:20:45;13.88;;;9.13;;
34876;SDS011;21086;44.780;17.194;2023-03-04T11:23:21;11.27;;;9.60;;
34876;SDS011;21086;44.780;17.194;2023-03-04T11:26:01;13.43;;;8.80;;
34876;SDS011;21086;44.780;17.194;2023-03-04T11:31:35;9.50;;;8.25;;
34876;SDS011;21086;44.780;17.194;2023-03-04T11:36:58;11.27;;;9.00;;
34876;SDS011;21086;44.780;17.194;2023-03-04T11:39:49;11.63;;;8.70;;
34876;SDS011;21086;44.780;17.194;2023-03-04T11:45:12;12.73;;;9.40;;
34876;SDS011;21086;44.780;17.194;2023-03-04T11:48:08;12.13;;;9.45;;
34876;SDS011;21086;44.780;17.194;2023-03-04T12:17:05;15.68;;;11.35;;
34876;SDS011;21086;44.780;17.194;2023-03-04T12:19:00;11.13;;;9.88;;
34876;SDS011;21086;44.780;17.194;2023-03-04T12:27:24;14.52;;;11.80;;
34876;SDS011;21086;44.780;17.194;2023-03-04T12:36:28;12.50;;;9.13;;
34876;SDS011;21086;44.780;17.194;2023-03-04T12:41:50;12.95;;;9.23;;
34876;SDS011;21086;44.780;17.194;2023-03-04T12:44:33;17.25;;;11.60;;
34876;SDS011;21086;44.780;17.194;2023-03-04T12:55:55;14.18;;;10.85;;
34876;SDS011;21086;44.780;17.194;2023-03-04T12:58:25;17.20;;;12.18;;
34876;SDS011;21086;44.780;17.194;2023-03-04T13:09:25;12.45;;;8.38;;
34876;SDS011;21086;44.780;17.194;2023-03-04T13:12:17;15.85;;;9.40;;
34876;SDS011;21086;44.780;17.194;2023-03-04T13:25:34;11.25;;;9.23;;
34876;SDS011;21086;44.780;17.194;2023-03-04T13:35:48;9.73;;;7.18;;
34876;SDS011;21086;44.780;17.194;2023-03-04T13:43:49;10.73;;;6.40;;
34876;SDS011;21086;44.780;17.194;2023-03-04T13:59:14;7.93;;;5.88;;
34876;SDS011;21086;44.780;17.194;2023-03-04T14:01:50;10.18;;;5.88;;
34876;SDS011;21086;44.780;17.194;2023-03-04T14:12:50;8.25;;;5.45;;
34876;SDS011;21086;44.780;17.194;2023-03-04T14:15:25;9.02;;;5.35;;
34876;SDS011;21086;44.780;17.194;2023-03-04T14:18:00;7.72;;;5.22;;
34876;SDS011;21086;44.780;17.194;2023-03-04T14:23:26;7.80;;;6.15;;
34876;SDS011;21086;44.780;17.194;2023-03-04T14:25:59;12.52;;;6.88;;
34876;SDS011;21086;44.780;17.194;2023-03-04T14:31:15;7.18;;;5.45;;
34876;SDS011;21086;44.780;17.194;2023-03-04T14:33:48;9.27;;;5.57;;
34876;SDS011;21086;44.780;17.194;2023-03-04T14:36:19;13.60;;;6.63;;
34876;SDS011;21086;44.780;17.194;2023-03-04T14:38:50;8.13;;;6.15;;
34876;SDS011;21086;44.780;17.194;2023-03-04T14:41:24;9.15;;;6.47;;
34876;SDS011;21086;44.780;17.194;2023-03-04T14:44:24;6.90;;;5.20;;
34876;SDS011;21086;44.780;17.194;2023-03-04T14:47:06;9.80;;;5.85;;
34876;SDS011;21086;44.780;17.194;2023-03-04T14:49:44;9.98;;;4.85;;
34876;SDS011;21086;44.780;17.194;2023-03-04T14:52:29;11.48;;;5.90;;
34876;SDS011;21086;44.780;17.194;2023-03-04T14:57:40;11.85;;;5.70;;
34876;SDS011;21086;44.780;17.194;2023-03-04T15:02:52;10.23;;;6.38;;
34876;SDS011;21086;44.780;17.194;2023-03-04T15:05:31;8.68;;;5.75;;
34876;SDS011;21086;44.780;17.194;2023-03-04T15:08:04;8.43;;;5.78;;
34876;SDS011;21086;44.780;17.194;2023-03-04T15:10:42;7.45;;;5.70;;
34876;SDS011;21086;44.780;17.194;2023-03-04T15:13:36;9.10;;;5.10;;
34876;SDS011;21086;44.780;17.194;2023-03-04T15:16:10;7.90;;;4.97;;
34876;SDS011;21086;44.780;17.194;2023-03-04T15:19:02;6.80;;;5.47;;
34876;SDS011;21086;44.780;17.194;2023-03-04T15:24:07;12.68;;;6.30;;
34876;SDS011;21086;44.780;17.194;2023-03-04T15:26:40;8.40;;;6.25;;
34876;SDS011;21086;44.780;17.194;2023-03-04T15:29:10;7.30;;;5.85;;
34876;SDS011;21086;44.780;17.194;2023-03-04T15:31:43;11.85;;;6.47;;
34876;SDS011;21086;44.780;17.194;2023-03-04T15:34:14;10.30;;;6.32;;
34876;SDS011;21086;44.780;17.194;2023-03-04T15:36:46;9.77;;;6.30;;
34876;SDS011;21086;44.780;17.194;2023-03-04T15:39:16;9.18;;;6.50;;
34876;SDS011;21086;44.780;17.194;2023-03-04T15:41:44;10.25;;;6.05;;
34876;SDS011;21086;44.780;17.194;2023-03-04T15:44:12;10.65;;;6.45;;
34876;SDS011;21086;44.780;17.194;2023-03-04T15:46:39;9.98;;;6.22;;
34876;SDS011;21086;44.780;17.194;2023-03-04T15:49:06;9.15;;;6.00;;
34876;SDS011;21086;44.780;17.194;2023-03-04T15:51:33;10.00;;;6.43;;
34876;SDS011;21086;44.780;17.194;2023-03-04T15:54:01;9.25;;;6.38;;
34876;SDS011;21086;44.780;17.194;2023-03-04T15:56:29;9.82;;;5.95;;
34876;SDS011;21086;44.780;17.194;2023-03-04T15:58:59;12.82;;;6.50;;
34876;SDS011;21086;44.780;17.194;2023-03-04T16:01:35;8.45;;;6.00;;
34876;SDS011;21086;44.780;17.194;2023-03-04T16:04:02;11.25;;;6.50;;
34876;SDS011;21086;44.780;17.194;2023-03-04T16:06:29;11.05;;;7.15;;
34876;SDS011;21086;44.780;17.194;2023-03-04T16:08:57;12.95;;;6.47;;
34876;SDS011;21086;44.780;17.194;2023-03-04T16:11:26;13.45;;;7.40;;
34876;SDS011;21086;44.780;17.194;2023-03-04T16:13:55;14.95;;;8.55;;
34876;SDS011;21086;44.780;17.194;2023-03-04T16:16:22;11.98;;;7.40;;
34876;SDS011;21086;44.780;17.194;2023-03-04T16:18:50;13.25;;;8.48;;
34876;SDS011;21086;44.780;17.194;2023-03-04T16:21:18;13.95;;;8.85;;
34876;SDS011;21086;44.780;17.194;2023-03-04T16:23:48;17.63;;;11.50;;
34876;SDS011;21086;44.780;17.194;2023-03-04T16:26:17;13.43;;;9.25;;
34876;SDS011;21086;44.780;17.194;2023-03-04T16:28:47;15.40;;;11.60;;
34876;SDS011;21086;44.780;17.194;2023-03-04T16:31:15;16.25;;;12.15;;
34876;SDS011;21086;44.780;17.194;2023-03-04T16:33:43;23.73;;;14.43;;
34876;SDS011;21086;44.780;17.194;2023-03-04T16:36:13;17.38;;;12.40;;
34876;SDS011;21086;44.780;17.194;2023-03-04T16:38:44;19.65;;;12.13;;
34876;SDS011;21086;44.780;17.194;2023-03-04T16:41:13;23.60;;;14.00;;
34876;SDS011;21086;44.780;17.194;2023-03-04T16:43:41;27.60;;;14.93;;
34876;SDS011;21086;44.780;17.194;2023-03-04T16:46:11;20.98;;;13.75;;
34876;SDS011;21086;44.780;17.194;2023-03-04T16:48:39;21.75;;;14.48;;
34876;SDS011;21086;44.780;17.194;2023-03-04T16:51:11;27.30;;;15.93;;
34876;SDS011;21086;44.780;17.194;2023-03-04T16:53:43;25.30;;;14.77;;
34876;SDS011;21086;44.780;17.194;2023-03-04T16:56:15;27.90;;;17.08;;
34876;SDS011;21086;44.780;17.194;2023-03-04T16:58:43;28.88;;;17.35;;
34876;SDS011;21086;44.780;17.194;2023-03-04T17:01:44;27.42;;;17.50;;
34876;SDS011;21086;44.780;17.194;2023-03-04T17:04:04;24.00;;;15.75;;
34876;SDS011;21086;44.780;17.194;2023-03-04T17:06:31;27.83;;;16.95;;
34876;SDS011;21086;44.780;17.194;2023-03-04T17:08:59;29.85;;;18.63;;
34876;SDS011;21086;44.780;17.194;2023-03-04T17:11:27;29.55;;;19.05;;
34876;SDS011;21086;44.780;17.194;2023-03-04T17:13:54;26.88;;;16.70;;